sensor_id;sensor_type;location;lat;lon;timestamp;temperature;humidity
52643;DHT22;38531;53.296;6.614;2023-02-18T00:00:24;6.80;99.90
52643;DHT22;38531;53.296;6.614;2023-02-18T00:02:49;6.70;99.90
52643;DHT22;38531;53.296;6.614;2023-02-18T00:05:15;6.70;99.90
52643;DHT22;38531;53.296;6.614;2023-02-18T00:07:41;6.80;99.90
52643;DHT22;38531;53.296;6.614;2023-02-18T00:10:08;8.10;99.90
52643;DHT22;38531;53.296;6.614;2023-02-18T00:12:34;6.80;99.90
52643;DHT22;38531;53.296;6.614;2023-02-18T00:14:59;6.80;99.90
52643;DHT22;38531;53.296;6.614;2023-02-18T00:17:25;6.80;99.90
52643;DHT22;38531;53.296;6.614;2023-02-18T00:19:50;7.60;99.90
52643;DHT22;38531;53.296;6.614;2023-02-18T00:22:16;6.70;99.90
52643;DHT22;38531;53.296;6.614;2023-02-18T00:24:41;6.80;99.90
52643;DHT22;38531;53.296;6.614;2023-02-18T00:27:07;6.80;99.90
52643;DHT22;38531;53.296;6.614;2023-02-18T00:29:33;8.10;99.90
52643;DHT22;38531;53.296;6.614;2023-02-18T00:31:59;6.80;99.90
52643;DHT22;38531;53.296;6.614;2023-02-18T00:34:24;6.90;99.90
52643;DHT22;38531;53.296;6.614;2023-02-18T00:36:50;6.80;99.90
52643;DHT22;38531;53.296;6.614;2023-02-18T00:39:15;7.30;99.90
52643;DHT22;38531;53.296;6.614;2023-02-18T00:41:41;7.70;99.90
52643;DHT22;38531;53.296;6.614;2023-02-18T00:44:07;6.90;99.90
52643;DHT22;38531;53.296;6.614;2023-02-18T00:46:33;6.90;99.90
52643;DHT22;38531;53.296;6.614;2023-02-18T00:48:59;6.80;99.90
52643;DHT22;38531;53.296;6.614;2023-02-18T00:51:24;8.10;99.90
52643;DHT22;38531;53.296;6.614;2023-02-18T00:53:50;6.80;99.90
52643;DHT22;38531;53.296;6.614;2023-02-18T00:56:15;6.80;99.90
52643;DHT22;38531;53.296;6.614;2023-02-18T00:58:41;7.40;99.90
52643;DHT22;38531;53.296;6.614;2023-02-18T01:01:07;6.70;99.90
52643;DHT22;38531;53.296;6.614;2023-02-18T01:03:34;6.70;99.90
52643;DHT22;38531;53.296;6.614;2023-02-18T01:06:00;7.80;99.90
52643;DHT22;38531;53.296;6.614;2023-02-18T01:08:26;6.70;99.90
52643;DHT22;38531;53.296;6.614;2023-02-18T01:10:54;6.60;99.90
52643;DHT22;38531;53.296;6.614;2023-02-18T01:13:20;7.70;99.90
52643;DHT22;38531;53.296;6.614;2023-02-18T01:15:46;6.60;99.90
52643;DHT22;38531;53.296;6.614;2023-02-18T01:18:12;6.60;99.90
52643;DHT22;38531;53.296;6.614;2023-02-18T01:20:38;6.60;99.90
52643;DHT22;38531;53.296;6.614;2023-02-18T01:23:04;6.60;99.90
52643;DHT22;38531;53.296;6.614;2023-02-18T01:25:30;7.30;99.90
52643;DHT22;38531;53.296;6.614;2023-02-18T01:27:56;6.90;99.90
52643;DHT22;38531;53.296;6.614;2023-02-18T01:30:22;7.60;99.90
52643;DHT22;38531;53.296;6.614;2023-02-18T01:32:47;6.50;99.90
52643;DHT22;38531;53.296;6.614;2023-02-18T01:35:13;6.50;99.90
52643;DHT22;38531;53.296;6.614;2023-02-18T01:37:39;6.50;99.90
52643;DHT22;38531;53.296;6.614;2023-02-18T01:40:05;6.70;99.90
52643;DHT22;38531;53.296;6.614;2023-02-18T01:42:31;6.60;99.90
52643;DHT22;38531;53.296;6.614;2023-02-18T01:47:41;6.50;99.90
52643;DHT22;38531;53.296;6.614;2023-02-18T01:50:06;6.80;99.90
52643;DHT22;38531;53.296;6.614;2023-02-18T01:52:32;6.60;99.90
52643;DHT22;38531;53.296;6.614;2023-02-18T01:54:58;6.60;99.90
52643;DHT22;38531;53.296;6.614;2023-02-18T01:57:31;6.60;99.90
52643;DHT22;38531;53.296;6.614;2023-02-18T02:02:23;6.70;99.90
52643;DHT22;38531;53.296;6.614;2023-02-18T02:04:49;7.10;99.90
52643;DHT22;38531;53.296;6.614;2023-02-18T02:07:15;7.40;99.90
52643;DHT22;38531;53.296;6.614;2023-02-18T02:09:42;7.40;99.90
52643;DHT22;38531;53.296;6.614;2023-02-18T02:14:46;6.70;99.90
52643;DHT22;38531;53.296;6.614;2023-02-18T02:35:07;6.80;99.90
52643;DHT22;38531;53.296;6.614;2023-02-18T02:37:46;7.20;99.90
52643;DHT22;38531;53.296;6.614;2023-02-18T02:43:05;6.80;99.90
52643;DHT22;38531;53.296;6.614;2023-02-18T02:51:17;6.90;99.90
52643;DHT22;38531;53.296;6.614;2023-02-18T02:53:44;6.90;99.90
52643;DHT22;38531;53.296;6.614;2023-02-18T02:56:16;6.90;99.90
52643;DHT22;38531;53.296;6.614;2023-02-18T02:58:43;7.00;99.90
52643;DHT22;38531;53.296;6.614;2023-02-18T03:04:00;6.90;99.90
52643;DHT22;38531;53.296;6.614;2023-02-18T03:09:35;7.00;99.90
52643;DHT22;38531;53.296;6.614;2023-02-18T03:12:23;7.00;99.90
52643;DHT22;38531;53.296;6.614;2023-02-18T03:15:03;7.00;99.90
52643;DHT22;38531;53.296;6.614;2023-02-18T03:17:30;7.00;99.90
52643;DHT22;38531;53.296;6.614;2023-02-18T03:20:02;7.00;99.90
52643;DHT22;38531;53.296;6.614;2023-02-18T03:22:29;7.80;99.90
52643;DHT22;38531;53.296;6.614;2023-02-18T03:24:56;7.10;99.90
52643;DHT22;38531;53.296;6.614;2023-02-18T03:27:22;7.10;99.90
52643;DHT22;38531;53.296;6.614;2023-02-18T03:29:51;7.10;99.90
52643;DHT22;38531;53.296;6.614;2023-02-18T03:32:18;7.10;99.90
52643;DHT22;38531;53.296;6.614;2023-02-18T03:34:46;7.20;99.90
52643;DHT22;38531;53.296;6.614;2023-02-18T03:37:13;7.40;99.90
52643;DHT22;38531;53.296;6.614;2023-02-18T03:39:40;7.20;99.90
52643;DHT22;38531;53.296;6.614;2023-02-18T03:42:06;7.20;99.90
52643;DHT22;38531;53.296;6.614;2023-02-18T03:44:32;7.50;99.90
52643;DHT22;38531;53.296;6.614;2023-02-18T03:46:57;7.60;99.90
52643;DHT22;38531;53.296;6.614;2023-02-18T03:49:23;7.40;99.90
52643;DHT22;38531;53.296;6.614;2023-02-18T03:51:48;7.50;99.90
52643;DHT22;38531;53.296;6.614;2023-02-18T03:54:14;8.10;99.90
52643;DHT22;38531;53.296;6.614;2023-02-18T03:56:40;7.40;99.90
52643;DHT22;38531;53.296;6.614;2023-02-18T03:59:05;7.60;99.90
52643;DHT22;38531;53.296;6.614;2023-02-18T04:01:31;7.70;99.90
52643;DHT22;38531;53.296;6.614;2023-02-18T04:03:56;7.30;99.90
52643;DHT22;38531;53.296;6.614;2023-02-18T04:06:22;7.30;99.90
52643;DHT22;38531;53.296;6.614;2023-02-18T04:08:48;7.40;99.90
52643;DHT22;38531;53.296;6.614;2023-02-18T04:11:13;7.40;99.90
52643;DHT22;38531;53.296;6.614;2023-02-18T04:13:39;8.20;99.90
52643;DHT22;38531;53.296;6.614;2023-02-18T04:16:05;8.10;99.90
52643;DHT22;38531;53.296;6.614;2023-02-18T04:18:30;7.40;99.90
52643;DHT22;38531;53.296;6.614;2023-02-18T04:20:56;8.20;99.90
52643;DHT22;38531;53.296;6.614;2023-02-18T04:23:21;7.40;99.90
52643;DHT22;38531;53.296;6.614;2023-02-18T04:25:47;7.40;99.90
52643;DHT22;38531;53.296;6.614;2023-02-18T04:28:13;7.70;99.90
52643;DHT22;38531;53.296;6.614;2023-02-18T04:30:39;7.80;99.90
52643;DHT22;38531;53.296;6.614;2023-02-18T04:33:05;8.30;99.90
52643;DHT22;38531;53.296;6.614;2023-02-18T04:35:31;7.70;99.90
52643;DHT22;38531;53.296;6.614;2023-02-18T04:37:56;7.50;99.90
52643;DHT22;38531;53.296;6.614;2023-02-18T04:40:22;7.30;99.90
52643;DHT22;38531;53.296;6.614;2023-02-18T04:42:49;8.30;99.90
52643;DHT22;38531;53.296;6.614;2023-02-18T04:45:15;7.40;99.90
52643;DHT22;38531;53.296;6.614;2023-02-18T04:47:40;7.40;99.90
52643;DHT22;38531;53.296;6.614;2023-02-18T04:50:06;7.50;99.90
52643;DHT22;38531;53.296;6.614;2023-02-18T04:52:32;7.30;99.90
52643;DHT22;38531;53.296;6.614;2023-02-18T04:54:57;7.40;99.90
52643;DHT22;38531;53.296;6.614;2023-02-18T04:57:23;7.60;99.90
52643;DHT22;38531;53.296;6.614;2023-02-18T04:59:48;8.40;99.90
52643;DHT22;38531;53.296;6.614;2023-02-18T05:02:14;8.40;99.90
52643;DHT22;38531;53.296;6.614;2023-02-18T05:04:40;7.40;99.90
52643;DHT22;38531;53.296;6.614;2023-02-18T05:07:05;7.90;99.90
52643;DHT22;38531;53.296;6.614;2023-02-18T05:09:31;7.10;99.90
52643;DHT22;38531;53.296;6.614;2023-02-18T05:11:56;7.50;99.90
52643;DHT22;38531;53.296;6.614;2023-02-18T05:14:22;7.60;99.90
52643;DHT22;38531;53.296;6.614;2023-02-18T05:16:47;7.30;99.90
52643;DHT22;38531;53.296;6.614;2023-02-18T05:19:13;7.80;99.90
52643;DHT22;38531;53.296;6.614;2023-02-18T05:21:39;7.30;99.90
52643;DHT22;38531;53.296;6.614;2023-02-18T05:24:05;7.90;99.90
52643;DHT22;38531;53.296;6.614;2023-02-18T05:26:30;7.30;99.90
52643;DHT22;38531;53.296;6.614;2023-02-18T05:28:56;7.30;99.90
52643;DHT22;38531;53.296;6.614;2023-02-18T05:31:22;7.70;99.90
52643;DHT22;38531;53.296;6.614;2023-02-18T05:33:47;7.30;99.90
52643;DHT22;38531;53.296;6.614;2023-02-18T05:36:13;7.30;99.90
52643;DHT22;38531;53.296;6.614;2023-02-18T05:38:38;7.40;99.90
52643;DHT22;38531;53.296;6.614;2023-02-18T05:41:04;7.80;99.90
52643;DHT22;38531;53.296;6.614;2023-02-18T05:43:29;7.70;99.90
52643;DHT22;38531;53.296;6.614;2023-02-18T05:45:55;8.20;99.90
52643;DHT22;38531;53.296;6.614;2023-02-18T05:48:20;7.40;99.90
52643;DHT22;38531;53.296;6.614;2023-02-18T05:50:46;8.70;99.90
52643;DHT22;38531;53.296;6.614;2023-02-18T05:53:11;7.50;99.90
52643;DHT22;38531;53.296;6.614;2023-02-18T05:55:37;7.80;99.90
52643;DHT22;38531;53.296;6.614;2023-02-18T05:58:04;7.60;99.90
52643;DHT22;38531;53.296;6.614;2023-02-18T06:00:29;8.10;99.90
52643;DHT22;38531;53.296;6.614;2023-02-18T06:02:56;8.20;99.90
52643;DHT22;38531;53.296;6.614;2023-02-18T06:05:22;7.70;99.90
52643;DHT22;38531;53.296;6.614;2023-02-18T06:07:47;7.70;99.90
52643;DHT22;38531;53.296;6.614;2023-02-18T06:10:13;7.00;99.90
52643;DHT22;38531;53.296;6.614;2023-02-18T06:12:38;8.20;99.90
52643;DHT22;38531;53.296;6.614;2023-02-18T06:15:04;7.80;99.90
52643;DHT22;38531;53.296;6.614;2023-02-18T06:17:30;7.80;99.90
52643;DHT22;38531;53.296;6.614;2023-02-18T06:19:55;7.90;99.90
52643;DHT22;38531;53.296;6.614;2023-02-18T06:22:21;7.90;99.90
52643;DHT22;38531;53.296;6.614;2023-02-18T06:24:47;8.00;99.90
52643;DHT22;38531;53.296;6.614;2023-02-18T06:27:12;8.00;99.90
52643;DHT22;38531;53.296;6.614;2023-02-18T06:29:38;8.90;99.90
52643;DHT22;38531;53.296;6.614;2023-02-18T06:32:03;8.80;99.90
52643;DHT22;38531;53.296;6.614;2023-02-18T06:34:29;8.20;99.90
52643;DHT22;38531;53.296;6.614;2023-02-18T06:36:54;8.30;99.90
52643;DHT22;38531;53.296;6.614;2023-02-18T06:39:20;8.30;99.90
52643;DHT22;38531;53.296;6.614;2023-02-18T06:41:45;8.60;99.90
52643;DHT22;38531;53.296;6.614;2023-02-18T06:44:11;8.40;99.90
52643;DHT22;38531;53.296;6.614;2023-02-18T06:46:39;8.40;99.90
52643;DHT22;38531;53.296;6.614;2023-02-18T06:49:05;8.80;99.90
52643;DHT22;38531;53.296;6.614;2023-02-18T06:51:30;8.50;99.90
52643;DHT22;38531;53.296;6.614;2023-02-18T06:53:56;8.50;99.90
52643;DHT22;38531;53.296;6.614;2023-02-18T06:56:21;8.60;99.90
52643;DHT22;38531;53.296;6.614;2023-02-18T06:58:47;8.60;99.90
52643;DHT22;38531;53.296;6.614;2023-02-18T07:01:12;9.10;99.90
52643;DHT22;38531;53.296;6.614;2023-02-18T07:03:38;9.80;99.90
52643;DHT22;38531;53.296;6.614;2023-02-18T07:06:04;8.70;99.90
52643;DHT22;38531;53.296;6.614;2023-02-18T07:08:29;8.70;99.90
52643;DHT22;38531;53.296;6.614;2023-02-18T07:10:57;8.70;99.90
52643;DHT22;38531;53.296;6.614;2023-02-18T07:13:22;8.80;99.90
52643;DHT22;38531;53.296;6.614;2023-02-18T07:15:48;8.90;99.90
52643;DHT22;38531;53.296;6.614;2023-02-18T07:18:14;9.00;99.90
52643;DHT22;38531;53.296;6.614;2023-02-18T07:20:39;8.90;99.90
52643;DHT22;38531;53.296;6.614;2023-02-18T07:23:05;8.90;99.90
52643;DHT22;38531;53.296;6.614;2023-02-18T07:25:30;8.30;99.90
52643;DHT22;38531;53.296;6.614;2023-02-18T07:27:56;8.90;99.90
52643;DHT22;38531;53.296;6.614;2023-02-18T07:30:21;9.80;99.90
52643;DHT22;38531;53.296;6.614;2023-02-18T07:32:47;9.30;99.90
52643;DHT22;38531;53.296;6.614;2023-02-18T07:35:13;9.00;99.90
52643;DHT22;38531;53.296;6.614;2023-02-18T07:37:39;9.10;99.90
52643;DHT22;38531;53.296;6.614;2023-02-18T07:40:05;9.10;99.90
52643;DHT22;38531;53.296;6.614;2023-02-18T07:42:31;9.20;99.90
52643;DHT22;38531;53.296;6.614;2023-02-18T07:44:56;9.20;99.90
52643;DHT22;38531;53.296;6.614;2023-02-18T07:47:22;9.90;99.90
52643;DHT22;38531;53.296;6.614;2023-02-18T07:49:48;9.30;99.90
52643;DHT22;38531;53.296;6.614;2023-02-18T07:52:14;9.30;99.90
52643;DHT22;38531;53.296;6.614;2023-02-18T07:54:39;9.30;99.90
52643;DHT22;38531;53.296;6.614;2023-02-18T07:57:05;9.90;99.90
52643;DHT22;38531;53.296;6.614;2023-02-18T07:59:30;9.40;99.90
52643;DHT22;38531;53.296;6.614;2023-02-18T08:01:56;9.50;99.90
52643;DHT22;38531;53.296;6.614;2023-02-18T08:04:21;9.40;99.90
52643;DHT22;38531;53.296;6.614;2023-02-18T08:06:47;9.40;99.90
52643;DHT22;38531;53.296;6.614;2023-02-18T08:09:14;9.70;99.90
52643;DHT22;38531;53.296;6.614;2023-02-18T08:11:40;9.50;99.90
52643;DHT22;38531;53.296;6.614;2023-02-18T08:14:05;10.00;99.90
52643;DHT22;38531;53.296;6.614;2023-02-18T08:16:31;9.50;99.90
52643;DHT22;38531;53.296;6.614;2023-02-18T08:18:57;10.30;99.90
52643;DHT22;38531;53.296;6.614;2023-02-18T08:21:23;9.90;99.90
52643;DHT22;38531;53.296;6.614;2023-02-18T08:23:49;9.50;99.90
52643;DHT22;38531;53.296;6.614;2023-02-18T08:26:15;9.50;99.90
52643;DHT22;38531;53.296;6.614;2023-02-18T08:28:41;9.50;99.90
52643;DHT22;38531;53.296;6.614;2023-02-18T08:31:07;9.60;99.90
52643;DHT22;38531;53.296;6.614;2023-02-18T08:33:38;9.50;99.90
52643;DHT22;38531;53.296;6.614;2023-02-18T08:36:06;9.70;99.90
52643;DHT22;38531;53.296;6.614;2023-02-18T08:38:31;9.50;99.90
52643;DHT22;38531;53.296;6.614;2023-02-18T08:41:01;8.90;99.90
52643;DHT22;38531;53.296;6.614;2023-02-18T08:43:27;9.40;99.90
52643;DHT22;38531;53.296;6.614;2023-02-18T08:45:52;9.50;99.90
52643;DHT22;38531;53.296;6.614;2023-02-18T08:48:18;9.60;99.90
52643;DHT22;38531;53.296;6.614;2023-02-18T08:50:43;9.50;99.90
52643;DHT22;38531;53.296;6.614;2023-02-18T08:53:09;9.50;99.90
52643;DHT22;38531;53.296;6.614;2023-02-18T08:55:35;9.60;99.90
52643;DHT22;38531;53.296;6.614;2023-02-18T09:04:17;9.50;99.90
52643;DHT22;38531;53.296;6.614;2023-02-18T09:06:46;9.50;99.90
52643;DHT22;38531;53.296;6.614;2023-02-18T09:09:12;9.50;99.90
52643;DHT22;38531;53.296;6.614;2023-02-18T09:11:37;9.50;99.90
52643;DHT22;38531;53.296;6.614;2023-02-18T09:14:03;9.50;99.90
52643;DHT22;38531;53.296;6.614;2023-02-18T09:16:28;9.50;99.90
52643;DHT22;38531;53.296;6.614;2023-02-18T09:18:54;9.40;99.90
52643;DHT22;38531;53.296;6.614;2023-02-18T09:21:20;9.40;99.90
52643;DHT22;38531;53.296;6.614;2023-02-18T09:23:47;9.40;99.90
52643;DHT22;38531;53.296;6.614;2023-02-18T09:26:14;10.40;99.90
52643;DHT22;38531;53.296;6.614;2023-02-18T09:28:40;9.40;99.90
52643;DHT22;38531;53.296;6.614;2023-02-18T09:31:07;9.80;99.90
52643;DHT22;38531;53.296;6.614;2023-02-18T09:33:36;9.70;99.90
52643;DHT22;38531;53.296;6.614;2023-02-18T09:36:02;9.50;99.90
52643;DHT22;38531;53.296;6.614;2023-02-18T09:38:27;9.50;99.90
52643;DHT22;38531;53.296;6.614;2023-02-18T09:40:53;9.50;99.90
52643;DHT22;38531;53.296;6.614;2023-02-18T09:46:21;9.50;99.90
52643;DHT22;38531;53.296;6.614;2023-02-18T09:48:47;9.40;99.90
52643;DHT22;38531;53.296;6.614;2023-02-18T09:51:15;9.60;99.90
52643;DHT22;38531;53.296;6.614;2023-02-18T09:53:41;9.50;99.90
52643;DHT22;38531;53.296;6.614;2023-02-18T09:56:13;9.50;99.90
52643;DHT22;38531;53.296;6.614;2023-02-18T09:58:39;9.50;99.90
52643;DHT22;38531;53.296;6.614;2023-02-18T10:03:36;9.50;99.90
52643;DHT22;38531;53.296;6.614;2023-02-18T10:06:03;9.50;99.90
52643;DHT22;38531;53.296;6.614;2023-02-18T10:08:34;9.50;99.90
52643;DHT22;38531;53.296;6.614;2023-02-18T10:11:00;9.70;99.90
52643;DHT22;38531;53.296;6.614;2023-02-18T10:13:31;9.70;99.90
52643;DHT22;38531;53.296;6.614;2023-02-18T10:15:56;9.70;99.90
52643;DHT22;38531;53.296;6.614;2023-02-18T10:18:29;9.70;99.90
52643;DHT22;38531;53.296;6.614;2023-02-18T10:21:05;9.70;99.90
52643;DHT22;38531;53.296;6.614;2023-02-18T10:23:32;9.70;99.90
52643;DHT22;38531;53.296;6.614;2023-02-18T10:25:58;9.70;99.90
52643;DHT22;38531;53.296;6.614;2023-02-18T10:28:25;9.70;99.90
52643;DHT22;38531;53.296;6.614;2023-02-18T10:30:56;10.10;99.90
52643;DHT22;38531;53.296;6.614;2023-02-18T10:41:08;9.90;99.90
52643;DHT22;38531;53.296;6.614;2023-02-18T10:43:39;9.90;99.90
52643;DHT22;38531;53.296;6.614;2023-02-18T10:51:16;10.00;99.90
52643;DHT22;38531;53.296;6.614;2023-02-18T10:53:44;10.00;99.90
52643;DHT22;38531;53.296;6.614;2023-02-18T10:56:54;10.10;99.90
52643;DHT22;38531;53.296;6.614;2023-02-18T10:59:00;10.20;99.90
52643;DHT22;38531;53.296;6.614;2023-02-18T11:01:29;10.20;99.90
52643;DHT22;38531;53.296;6.614;2023-02-18T11:06:51;10.20;99.90
52643;DHT22;38531;53.296;6.614;2023-02-18T11:12:02;10.30;99.90
52643;DHT22;38531;53.296;6.614;2023-02-18T11:14:45;10.40;99.90
52643;DHT22;38531;53.296;6.614;2023-02-18T11:17:24;10.40;99.90
52643;DHT22;38531;53.296;6.614;2023-02-18T11:19:55;10.40;99.90
52643;DHT22;38531;53.296;6.614;2023-02-18T11:22:22;10.50;99.90
52643;DHT22;38531;53.296;6.614;2023-02-18T11:24:52;10.50;99.90
52643;DHT22;38531;53.296;6.614;2023-02-18T11:27:22;10.70;99.90
52643;DHT22;38531;53.296;6.614;2023-02-18T11:29:58;10.60;99.90
52643;DHT22;38531;53.296;6.614;2023-02-18T11:32:27;10.60;99.90
52643;DHT22;38531;53.296;6.614;2023-02-18T11:34:53;10.70;99.90
52643;DHT22;38531;53.296;6.614;2023-02-18T11:37:19;10.80;99.90
52643;DHT22;38531;53.296;6.614;2023-02-18T11:39:47;11.20;99.90
52643;DHT22;38531;53.296;6.614;2023-02-18T11:42:14;10.80;99.90
52643;DHT22;38531;53.296;6.614;2023-02-18T11:44:41;11.00;99.90
52643;DHT22;38531;53.296;6.614;2023-02-18T11:49:37;11.10;99.90
52643;DHT22;38531;53.296;6.614;2023-02-18T11:54:41;11.10;99.90
52643;DHT22;38531;53.296;6.614;2023-02-18T11:57:11;11.10;99.90
52643;DHT22;38531;53.296;6.614;2023-02-18T11:59:37;11.10;99.90
52643;DHT22;38531;53.296;6.614;2023-02-18T12:04:39;11.10;99.90
52643;DHT22;38531;53.296;6.614;2023-02-18T12:07:23;11.20;99.90
52643;DHT22;38531;53.296;6.614;2023-02-18T12:09:50;11.20;99.90
52643;DHT22;38531;53.296;6.614;2023-02-18T12:14:42;11.30;99.90
52643;DHT22;38531;53.296;6.614;2023-02-18T12:40:20;11.90;99.90
52643;DHT22;38531;53.296;6.614;2023-02-18T12:42:56;11.90;99.90
52643;DHT22;38531;53.296;6.614;2023-02-18T12:50:38;12.00;99.90
52643;DHT22;38531;53.296;6.614;2023-02-18T12:58:33;12.20;99.90
52643;DHT22;38531;53.296;6.614;2023-02-18T13:13:43;12.00;99.90
52643;DHT22;38531;53.296;6.614;2023-02-18T13:16:13;11.90;99.90
52643;DHT22;38531;53.296;6.614;2023-02-18T13:18:40;12.00;99.90
52643;DHT22;38531;53.296;6.614;2023-02-18T13:21:11;12.00;99.90
52643;DHT22;38531;53.296;6.614;2023-02-18T13:26:21;12.00;99.90
52643;DHT22;38531;53.296;6.614;2023-02-18T13:31:18;11.80;99.90
52643;DHT22;38531;53.296;6.614;2023-02-18T13:33:51;11.90;99.90
52643;DHT22;38531;53.296;6.614;2023-02-18T13:41:16;11.80;99.90
52643;DHT22;38531;53.296;6.614;2023-02-18T13:43:42;11.90;99.90
52643;DHT22;38531;53.296;6.614;2023-02-18T13:46:12;11.80;99.90
52643;DHT22;38531;53.296;6.614;2023-02-18T13:48:47;11.70;99.90
52643;DHT22;38531;53.296;6.614;2023-02-18T13:51:15;11.60;99.90
52643;DHT22;38531;53.296;6.614;2023-02-18T13:53:41;11.20;99.90
52643;DHT22;38531;53.296;6.614;2023-02-18T13:56:19;11.80;99.90
52643;DHT22;38531;53.296;6.614;2023-02-18T13:58:57;11.90;99.90
52643;DHT22;38531;53.296;6.614;2023-02-18T14:01:30;11.80;99.90
52643;DHT22;38531;53.296;6.614;2023-02-18T14:03:59;11.50;99.90
52643;DHT22;38531;53.296;6.614;2023-02-18T14:06:30;11.90;99.90
52643;DHT22;38531;53.296;6.614;2023-02-18T14:11:38;11.80;99.90
52643;DHT22;38531;53.296;6.614;2023-02-18T14:14:15;11.60;99.90
52643;DHT22;38531;53.296;6.614;2023-02-18T14:19:35;11.60;99.90
52643;DHT22;38531;53.296;6.614;2023-02-18T14:24:48;11.50;99.90
52643;DHT22;38531;53.296;6.614;2023-02-18T14:27:15;11.50;99.90
52643;DHT22;38531;53.296;6.614;2023-02-18T14:29:40;11.40;99.90
52643;DHT22;38531;53.296;6.614;2023-02-18T14:32:10;11.40;99.90
52643;DHT22;38531;53.296;6.614;2023-02-18T14:34:55;11.30;99.90
52643;DHT22;38531;53.296;6.614;2023-02-18T14:37:36;11.40;99.90
52643;DHT22;38531;53.296;6.614;2023-02-18T14:40:29;11.30;99.90
52643;DHT22;38531;53.296;6.614;2023-02-18T14:50:56;11.40;99.90
52643;DHT22;38531;53.296;6.614;2023-02-18T14:53:25;11.10;99.90
52643;DHT22;38531;53.296;6.614;2023-02-18T14:55:58;11.10;99.90
52643;DHT22;38531;53.296;6.614;2023-02-18T14:58:25;11.10;99.90
52643;DHT22;38531;53.296;6.614;2023-02-18T15:00:52;11.20;99.90
52643;DHT22;38531;53.296;6.614;2023-02-18T15:03:18;11.10;99.90
52643;DHT22;38531;53.296;6.614;2023-02-18T15:05:45;11.00;99.90
52643;DHT22;38531;53.296;6.614;2023-02-18T15:08:15;11.10;99.90
52643;DHT22;38531;53.296;6.614;2023-02-18T15:10:42;11.10;99.90
52643;DHT22;38531;53.296;6.614;2023-02-18T15:13:12;11.10;99.90
52643;DHT22;38531;53.296;6.614;2023-02-18T15:15:39;11.30;99.90
52643;DHT22;38531;53.296;6.614;2023-02-18T15:18:05;10.90;99.90
52643;DHT22;38531;53.296;6.614;2023-02-18T15:20:36;10.90;99.90
52643;DHT22;38531;53.296;6.614;2023-02-18T15:23:02;11.00;99.90
52643;DHT22;38531;53.296;6.614;2023-02-18T15:25:28;11.10;99.90
52643;DHT22;38531;53.296;6.614;2023-02-18T15:27:54;10.50;99.90
52643;DHT22;38531;53.296;6.614;2023-02-18T15:32:49;11.00;99.90
52643;DHT22;38531;53.296;6.614;2023-02-18T15:35:16;10.80;99.90
52643;DHT22;38531;53.296;6.614;2023-02-18T15:37:45;10.70;99.90
52643;DHT22;38531;53.296;6.614;2023-02-18T15:40:12;10.60;99.90
52643;DHT22;38531;53.296;6.614;2023-02-18T15:42:38;10.60;99.90
52643;DHT22;38531;53.296;6.614;2023-02-18T15:45:08;10.60;99.90
52643;DHT22;38531;53.296;6.614;2023-02-18T15:47:41;10.50;99.90
52643;DHT22;38531;53.296;6.614;2023-02-18T15:50:14;10.40;99.90
52643;DHT22;38531;53.296;6.614;2023-02-18T15:52:41;10.60;99.90
52643;DHT22;38531;53.296;6.614;2023-02-18T15:55:09;10.30;99.90
52643;DHT22;38531;53.296;6.614;2023-02-18T15:57:35;10.20;99.90
52643;DHT22;38531;53.296;6.614;2023-02-18T16:00:04;10.20;99.90
52643;DHT22;38531;53.296;6.614;2023-02-18T16:02:35;10.30;99.90
52643;DHT22;38531;53.296;6.614;2023-02-18T16:05:01;10.20;99.90
52643;DHT22;38531;53.296;6.614;2023-02-18T16:07:30;10.10;99.90
52643;DHT22;38531;53.296;6.614;2023-02-18T16:12:57;10.20;99.90
52643;DHT22;38531;53.296;6.614;2023-02-18T16:15:28;10.70;99.90
52643;DHT22;38531;53.296;6.614;2023-02-18T16:17:54;10.00;99.90
52643;DHT22;38531;53.296;6.614;2023-02-18T16:22:48;9.90;99.90
52643;DHT22;38531;53.296;6.614;2023-02-18T16:25:21;10.30;99.90
52643;DHT22;38531;53.296;6.614;2023-02-18T16:27:54;9.90;99.90
52643;DHT22;38531;53.296;6.614;2023-02-18T16:30:28;9.80;99.90
52643;DHT22;38531;53.296;6.614;2023-02-18T16:32:55;9.80;99.90
52643;DHT22;38531;53.296;6.614;2023-02-18T16:35:22;9.80;99.90
52643;DHT22;38531;53.296;6.614;2023-02-18T16:37:48;9.70;99.90
52643;DHT22;38531;53.296;6.614;2023-02-18T16:40:33;9.80;99.90
52643;DHT22;38531;53.296;6.614;2023-02-18T16:43:00;9.70;99.90
52643;DHT22;38531;53.296;6.614;2023-02-18T16:46:04;9.80;99.90
52643;DHT22;38531;53.296;6.614;2023-02-18T16:50:52;9.60;99.90
52643;DHT22;38531;53.296;6.614;2023-02-18T16:53:18;9.40;99.90
52643;DHT22;38531;53.296;6.614;2023-02-18T16:55:44;9.40;99.90
52643;DHT22;38531;53.296;6.614;2023-02-18T16:58:10;9.50;99.90
52643;DHT22;38531;53.296;6.614;2023-02-18T17:00:36;9.50;99.90
52643;DHT22;38531;53.296;6.614;2023-02-18T17:03:02;9.60;99.90
52643;DHT22;38531;53.296;6.614;2023-02-18T17:05:29;9.50;99.90
52643;DHT22;38531;53.296;6.614;2023-02-18T17:07:58;9.60;99.90
52643;DHT22;38531;53.296;6.614;2023-02-18T17:10:28;9.40;99.90
52643;DHT22;38531;53.296;6.614;2023-02-18T17:12:54;9.90;99.90
52643;DHT22;38531;53.296;6.614;2023-02-18T17:17:51;9.20;99.90
52643;DHT22;38531;53.296;6.614;2023-02-18T17:20:17;9.30;99.90
52643;DHT22;38531;53.296;6.614;2023-02-18T17:22:43;9.30;99.90
52643;DHT22;38531;53.296;6.614;2023-02-18T17:25:09;9.50;99.90
52643;DHT22;38531;53.296;6.614;2023-02-18T17:27:36;9.20;99.90
52643;DHT22;38531;53.296;6.614;2023-02-18T17:30:02;9.30;99.90
52643;DHT22;38531;53.296;6.614;2023-02-18T17:32:27;9.30;99.90
52643;DHT22;38531;53.296;6.614;2023-02-18T17:34:53;9.70;99.90
52643;DHT22;38531;53.296;6.614;2023-02-18T17:37:19;10.10;99.90
52643;DHT22;38531;53.296;6.614;2023-02-18T17:39:47;9.10;99.90
52643;DHT22;38531;53.296;6.614;2023-02-18T17:42:13;9.20;99.90
52643;DHT22;38531;53.296;6.614;2023-02-18T17:44:39;9.20;99.90
52643;DHT22;38531;53.296;6.614;2023-02-18T17:47:05;9.50;99.90
52643;DHT22;38531;53.296;6.614;2023-02-18T17:49:30;9.20;99.90
52643;DHT22;38531;53.296;6.614;2023-02-18T17:51:56;9.10;99.90
52643;DHT22;38531;53.296;6.614;2023-02-18T17:54:21;9.40;99.90
52643;DHT22;38531;53.296;6.614;2023-02-18T17:56:48;9.00;99.90
52643;DHT22;38531;53.296;6.614;2023-02-18T17:59:14;9.10;99.90
52643;DHT22;38531;53.296;6.614;2023-02-18T18:01:40;9.50;99.90
52643;DHT22;38531;53.296;6.614;2023-02-18T18:04:13;9.10;99.90
52643;DHT22;38531;53.296;6.614;2023-02-18T18:06:39;9.10;99.90
52643;DHT22;38531;53.296;6.614;2023-02-18T18:09:04;9.70;99.90
52643;DHT22;38531;53.296;6.614;2023-02-18T18:11:30;9.00;99.90
52643;DHT22;38531;53.296;6.614;2023-02-18T18:13:57;9.60;99.90
52643;DHT22;38531;53.296;6.614;2023-02-18T18:16:24;9.00;99.90
52643;DHT22;38531;53.296;6.614;2023-02-18T18:18:50;9.70;99.90
52643;DHT22;38531;53.296;6.614;2023-02-18T18:21:23;8.90;99.90
52643;DHT22;38531;53.296;6.614;2023-02-18T18:23:50;8.90;99.90
52643;DHT22;38531;53.296;6.614;2023-02-18T18:26:15;8.90;99.90
52643;DHT22;38531;53.296;6.614;2023-02-18T18:28:41;9.40;99.90